SGAS/ASU METAR and TAF weather

Enter ICAO airport designator
Station Type Date Time Source
SGAS METAR 2019/04/22 18:00 UTC NOAA

SGAS 221800Z 13003KT 040V150 9999 BKN020 27/22 Q1011


Station Type Date Time Source
SGAS Decoded METAR 2019/04/22 18:00 UTC NOAA

Asuncion / Aeropuerto, Paraguay (SGAS) 25-16S 057-38W 101M
Apr 22, 2019 - 02:00 PM EDT / 2019.04.22 1800 UTC
Wind: from the SE (130 degrees) at 3 MPH (3 KT) (direction variable):0
Visibility: greater than 7 mile(s):0
Sky conditions: mostly cloudy
Temperature: 80 F (27 C)
Dew Point: 71 F (22 C)
Relative Humidity: 74%
Pressure (altimeter): 29.85 in. Hg (1011 hPa)
ob: SGAS 221800Z 13003KT 040V150 9999 BKN020 27/22 Q1011
cycle: 18

Station Type Date Time Source
SGAS TAF 2019/04/22 18:35 UTC NOAA

TAF SGAS 221632Z 2218/2318 09006KT 9999 BKN020 TX29/2219Z TN19/2309Z PROB30 2220/2223 8000 DZ BKN017
BECMG 2300/2303 15007KT 9999 BKN020 PROB40 2308/2311 VRB03KT 4000 DZ BR BKN015
BECMG 2313/2315 20008KT 9999 BKN020

Example: see airport list